Aldsworth, United Kingdom
Current Conditions -  °F | °C
As of 12:50 AM on Wednesday 26 Nov 2014 (Local Time) from EGVN Reporting Station
Moderate Rain Moderate Rain  
Wind Chill: 40°   Ceiling: 1100
Heat Index: 45°   Visibility: 2.5mi
Dew Point: 43°   Wind: 9mph
Humidity: 93%   Direction: 40°NE
Pressure: 29.94"   Gusts: NA
Location:  51.93°N, 1.72°W
Report Text: EGVN 260050Z 04008KT 4000 RA FEW005 BKN011 07/06 Q1014 GRN TEMPO 2500 YLO1
Loading
Personal Weather Stations






























Interactive Weather Map New forecast layout! Learn more

10-Day Weather Forecast

Advertisements
Track Severe Weather on mobile